sensor_id;sensor_type;location;lat;lon;timestamp;pressure;altitude;pressure_sealevel;temperature
68012;BMP180;54794;48.348;7.878;2022-07-21T00:00:23;99478.00;;;25.40
68012;BMP180;54794;48.348;7.878;2022-07-21T00:02:51;99487.00;;;25.40
68012;BMP180;54794;48.348;7.878;2022-07-21T00:05:19;99500.00;;;25.40
68012;BMP180;54794;48.348;7.878;2022-07-21T00:07:47;99483.00;;;25.40
68012;BMP180;54794;48.348;7.878;2022-07-21T00:10:16;99482.00;;;25.40
68012;BMP180;54794;48.348;7.878;2022-07-21T00:12:44;99472.00;;;25.40
68012;BMP180;54794;48.348;7.878;2022-07-21T00:15:13;99471.00;;;25.40
68012;BMP180;54794;48.348;7.878;2022-07-21T00:17:41;99463.00;;;25.30
68012;BMP180;54794;48.348;7.878;2022-07-21T00:20:09;99478.00;;;25.30
68012;BMP180;54794;48.348;7.878;2022-07-21T00:22:36;99473.00;;;25.30
68012;BMP180;54794;48.348;7.878;2022-07-21T00:25:05;99487.00;;;25.30
68012;BMP180;54794;48.348;7.878;2022-07-21T00:27:33;99479.00;;;25.30
68012;BMP180;54794;48.348;7.878;2022-07-21T00:30:00;99478.00;;;25.20
68012;BMP180;54794;48.348;7.878;2022-07-21T00:32:27;99495.00;;;25.20
68012;BMP180;54794;48.348;7.878;2022-07-21T00:35:04;99486.00;;;25.20
68012;BMP180;54794;48.348;7.878;2022-07-21T00:37:31;99496.00;;;25.20
68012;BMP180;54794;48.348;7.878;2022-07-21T00:39:58;99491.00;;;25.20
68012;BMP180;54794;48.348;7.878;2022-07-21T00:42:30;99503.00;;;25.10
68012;BMP180;54794;48.348;7.878;2022-07-21T00:44:59;99506.00;;;25.10
68012;BMP180;54794;48.348;7.878;2022-07-21T00:47:29;99501.00;;;25.10
68012;BMP180;54794;48.348;7.878;2022-07-21T00:50:00;99490.00;;;25.00
68012;BMP180;54794;48.348;7.878;2022-07-21T00:52:31;99496.00;;;25.00
68012;BMP180;54794;48.348;7.878;2022-07-21T00:54:58;99493.00;;;25.00
68012;BMP180;54794;48.348;7.878;2022-07-21T00:57:25;99475.00;;;25.00
68012;BMP180;54794;48.348;7.878;2022-07-21T00:59:52;99484.00;;;24.90
68012;BMP180;54794;48.348;7.878;2022-07-21T01:02:19;99482.00;;;25.00
68012;BMP180;54794;48.348;7.878;2022-07-21T01:04:46;99483.00;;;25.00
68012;BMP180;54794;48.348;7.878;2022-07-21T01:07:14;99486.00;;;24.90
68012;BMP180;54794;48.348;7.878;2022-07-21T01:09:42;99482.00;;;24.90
68012;BMP180;54794;48.348;7.878;2022-07-21T01:12:09;99479.00;;;25.00
68012;BMP180;54794;48.348;7.878;2022-07-21T01:14:37;99475.00;;;24.80
68012;BMP180;54794;48.348;7.878;2022-07-21T01:17:05;99472.00;;;24.90
68012;BMP180;54794;48.348;7.878;2022-07-21T01:19:32;99481.00;;;24.90
68012;BMP180;54794;48.348;7.878;2022-07-21T01:21:59;99473.00;;;24.90
68012;BMP180;54794;48.348;7.878;2022-07-21T01:24:26;99489.00;;;24.90
68012;BMP180;54794;48.348;7.878;2022-07-21T01:26:54;99485.00;;;24.90
68012;BMP180;54794;48.348;7.878;2022-07-21T01:29:22;99493.00;;;24.90
68012;BMP180;54794;48.348;7.878;2022-07-21T01:31:50;99477.00;;;25.00
68012;BMP180;54794;48.348;7.878;2022-07-21T01:34:17;99485.00;;;25.00
68012;BMP180;54794;48.348;7.878;2022-07-21T01:36:45;99486.00;;;25.00
68012;BMP180;54794;48.348;7.878;2022-07-21T01:39:13;99492.00;;;25.00
68012;BMP180;54794;48.348;7.878;2022-07-21T01:41:59;99485.00;;;25.00
68012;BMP180;54794;48.348;7.878;2022-07-21T01:44:26;99468.00;;;25.00
68012;BMP180;54794;48.348;7.878;2022-07-21T01:46:53;99475.00;;;25.00
68012;BMP180;54794;48.348;7.878;2022-07-21T01:49:22;99486.00;;;25.00
68012;BMP180;54794;48.348;7.878;2022-07-21T01:51:50;99484.00;;;25.00
68012;BMP180;54794;48.348;7.878;2022-07-21T01:54:17;99476.00;;;25.00
68012;BMP180;54794;48.348;7.878;2022-07-21T01:56:50;99479.00;;;25.00
68012;BMP180;54794;48.348;7.878;2022-07-21T01:59:17;99488.00;;;24.90
68012;BMP180;54794;48.348;7.878;2022-07-21T02:01:45;99484.00;;;24.90
68012;BMP180;54794;48.348;7.878;2022-07-21T02:04:12;99477.00;;;24.90
68012;BMP180;54794;48.348;7.878;2022-07-21T02:06:39;99482.00;;;24.90
68012;BMP180;54794;48.348;7.878;2022-07-21T02:09:06;99482.00;;;24.90
68012;BMP180;54794;48.348;7.878;2022-07-21T02:11:36;99497.00;;;24.90
68012;BMP180;54794;48.348;7.878;2022-07-21T02:14:05;99497.00;;;24.80
68012;BMP180;54794;48.348;7.878;2022-07-21T02:16:32;99497.00;;;24.80
68012;BMP180;54794;48.348;7.878;2022-07-21T02:19:01;99492.00;;;24.80
68012;BMP180;54794;48.348;7.878;2022-07-21T02:21:28;99489.00;;;24.80
68012;BMP180;54794;48.348;7.878;2022-07-21T02:23:55;99496.00;;;24.80
68012;BMP180;54794;48.348;7.878;2022-07-21T02:26:22;99499.00;;;24.80
68012;BMP180;54794;48.348;7.878;2022-07-21T02:28:49;99502.00;;;24.70
68012;BMP180;54794;48.348;7.878;2022-07-21T02:31:16;99512.00;;;24.70
68012;BMP180;54794;48.348;7.878;2022-07-21T02:33:43;99506.00;;;24.70
68012;BMP180;54794;48.348;7.878;2022-07-21T02:36:10;99507.00;;;24.70
68012;BMP180;54794;48.348;7.878;2022-07-21T02:38:37;99497.00;;;24.70
68012;BMP180;54794;48.348;7.878;2022-07-21T02:41:04;99516.00;;;24.70
68012;BMP180;54794;48.348;7.878;2022-07-21T02:43:32;99509.00;;;24.70
68012;BMP180;54794;48.348;7.878;2022-07-21T02:45:58;99511.00;;;24.60
68012;BMP180;54794;48.348;7.878;2022-07-21T02:48:25;99521.00;;;24.60
68012;BMP180;54794;48.348;7.878;2022-07-21T02:50:52;99523.00;;;24.70
68012;BMP180;54794;48.348;7.878;2022-07-21T02:53:20;99522.00;;;24.70
68012;BMP180;54794;48.348;7.878;2022-07-21T02:55:51;99519.00;;;24.70
68012;BMP180;54794;48.348;7.878;2022-07-21T02:58:25;99515.00;;;24.70
68012;BMP180;54794;48.348;7.878;2022-07-21T03:01:03;99514.00;;;24.70
68012;BMP180;54794;48.348;7.878;2022-07-21T03:03:34;99501.00;;;24.70
68012;BMP180;54794;48.348;7.878;2022-07-21T03:06:03;99509.00;;;24.70
68012;BMP180;54794;48.348;7.878;2022-07-21T03:08:30;99505.00;;;24.70
68012;BMP180;54794;48.348;7.878;2022-07-21T03:10:57;99502.00;;;24.70
68012;BMP180;54794;48.348;7.878;2022-07-21T03:13:24;99492.00;;;24.70
68012;BMP180;54794;48.348;7.878;2022-07-21T03:15:51;99493.00;;;24.70
68012;BMP180;54794;48.348;7.878;2022-07-21T03:18:18;99507.00;;;24.70
68012;BMP180;54794;48.348;7.878;2022-07-21T03:20:45;99498.00;;;24.70
68012;BMP180;54794;48.348;7.878;2022-07-21T03:23:12;99482.00;;;24.70
68012;BMP180;54794;48.348;7.878;2022-07-21T03:25:40;99499.00;;;24.70
68012;BMP180;54794;48.348;7.878;2022-07-21T03:28:07;99503.00;;;24.70
68012;BMP180;54794;48.348;7.878;2022-07-21T03:30:35;99490.00;;;24.70
68012;BMP180;54794;48.348;7.878;2022-07-21T03:33:04;99495.00;;;24.60
68012;BMP180;54794;48.348;7.878;2022-07-21T03:35:32;99497.00;;;24.60
68012;BMP180;54794;48.348;7.878;2022-07-21T03:38:00;99471.00;;;24.60
68012;BMP180;54794;48.348;7.878;2022-07-21T03:40:31;99497.00;;;24.50
68012;BMP180;54794;48.348;7.878;2022-07-21T03:43:01;99498.00;;;24.60
68012;BMP180;54794;48.348;7.878;2022-07-21T03:45:31;99507.00;;;24.50
68012;BMP180;54794;48.348;7.878;2022-07-21T03:48:02;99494.00;;;24.50
68012;BMP180;54794;48.348;7.878;2022-07-21T03:50:30;99521.00;;;24.50
68012;BMP180;54794;48.348;7.878;2022-07-21T03:52:58;99501.00;;;24.50
68012;BMP180;54794;48.348;7.878;2022-07-21T03:55:26;99510.00;;;24.40
68012;BMP180;54794;48.348;7.878;2022-07-21T03:58:03;99517.00;;;24.40
68012;BMP180;54794;48.348;7.878;2022-07-21T04:00:33;99492.00;;;24.50
68012;BMP180;54794;48.348;7.878;2022-07-21T04:03:01;99515.00;;;24.40
68012;BMP180;54794;48.348;7.878;2022-07-21T04:05:29;99513.00;;;24.40
68012;BMP180;54794;48.348;7.878;2022-07-21T04:07:57;99503.00;;;24.40
68012;BMP180;54794;48.348;7.878;2022-07-21T04:10:32;99517.00;;;24.40
68012;BMP180;54794;48.348;7.878;2022-07-21T04:13:05;99508.00;;;24.30
68012;BMP180;54794;48.348;7.878;2022-07-21T04:15:33;99501.00;;;24.40
68012;BMP180;54794;48.348;7.878;2022-07-21T04:18:01;99516.00;;;24.40
68012;BMP180;54794;48.348;7.878;2022-07-21T04:20:28;99516.00;;;24.40
68012;BMP180;54794;48.348;7.878;2022-07-21T04:22:55;99513.00;;;24.40
68012;BMP180;54794;48.348;7.878;2022-07-21T04:25:22;99509.00;;;24.40
68012;BMP180;54794;48.348;7.878;2022-07-21T04:27:51;99517.00;;;24.40
68012;BMP180;54794;48.348;7.878;2022-07-21T04:30:21;99502.00;;;24.40
68012;BMP180;54794;48.348;7.878;2022-07-21T04:32:49;99512.00;;;24.40
68012;BMP180;54794;48.348;7.878;2022-07-21T04:35:16;99507.00;;;24.40
68012;BMP180;54794;48.348;7.878;2022-07-21T04:37:43;99517.00;;;24.30
68012;BMP180;54794;48.348;7.878;2022-07-21T04:40:11;99510.00;;;24.30
68012;BMP180;54794;48.348;7.878;2022-07-21T04:42:39;99514.00;;;24.30
68012;BMP180;54794;48.348;7.878;2022-07-21T04:45:08;99510.00;;;24.30
68012;BMP180;54794;48.348;7.878;2022-07-21T04:47:49;99509.00;;;24.30
68012;BMP180;54794;48.348;7.878;2022-07-21T04:50:20;99518.00;;;24.30
68012;BMP180;54794;48.348;7.878;2022-07-21T04:52:48;99513.00;;;24.30
68012;BMP180;54794;48.348;7.878;2022-07-21T04:55:15;99517.00;;;24.20
68012;BMP180;54794;48.348;7.878;2022-07-21T04:57:47;99529.00;;;24.20
68012;BMP180;54794;48.348;7.878;2022-07-21T05:00:19;99533.00;;;24.20
68012;BMP180;54794;48.348;7.878;2022-07-21T05:02:48;99530.00;;;24.20
68012;BMP180;54794;48.348;7.878;2022-07-21T05:05:15;99532.00;;;24.20
68012;BMP180;54794;48.348;7.878;2022-07-21T05:07:43;99533.00;;;24.30
68012;BMP180;54794;48.348;7.878;2022-07-21T05:10:13;99537.00;;;24.10
68012;BMP180;54794;48.348;7.878;2022-07-21T05:12:41;99541.00;;;24.30
68012;BMP180;54794;48.348;7.878;2022-07-21T05:15:09;99540.00;;;24.20
68012;BMP180;54794;48.348;7.878;2022-07-21T05:17:39;99545.00;;;24.20
68012;BMP180;54794;48.348;7.878;2022-07-21T05:20:09;99546.00;;;24.30
68012;BMP180;54794;48.348;7.878;2022-07-21T05:22:37;99539.00;;;24.20
68012;BMP180;54794;48.348;7.878;2022-07-21T05:25:05;99548.00;;;24.20
68012;BMP180;54794;48.348;7.878;2022-07-21T05:27:33;99552.00;;;24.30
68012;BMP180;54794;48.348;7.878;2022-07-21T05:30:00;99555.00;;;24.30
68012;BMP180;54794;48.348;7.878;2022-07-21T05:32:27;99554.00;;;24.30
68012;BMP180;54794;48.348;7.878;2022-07-21T05:34:54;99542.00;;;24.40
68012;BMP180;54794;48.348;7.878;2022-07-21T05:37:21;99557.00;;;24.40
68012;BMP180;54794;48.348;7.878;2022-07-21T05:39:48;99546.00;;;24.40
68012;BMP180;54794;48.348;7.878;2022-07-21T05:42:14;99551.00;;;24.40
68012;BMP180;54794;48.348;7.878;2022-07-21T05:44:41;99545.00;;;24.50
68012;BMP180;54794;48.348;7.878;2022-07-21T05:47:08;99555.00;;;24.50
68012;BMP180;54794;48.348;7.878;2022-07-21T05:49:35;99544.00;;;24.50
68012;BMP180;54794;48.348;7.878;2022-07-21T05:52:02;99542.00;;;24.60
68012;BMP180;54794;48.348;7.878;2022-07-21T05:54:29;99552.00;;;24.60
68012;BMP180;54794;48.348;7.878;2022-07-21T05:56:56;99536.00;;;24.60
68012;BMP180;54794;48.348;7.878;2022-07-21T05:59:24;99542.00;;;24.70
68012;BMP180;54794;48.348;7.878;2022-07-21T06:01:51;99563.00;;;24.70
68012;BMP180;54794;48.348;7.878;2022-07-21T06:04:18;99566.00;;;24.80
68012;BMP180;54794;48.348;7.878;2022-07-21T06:06:45;99561.00;;;24.80
68012;BMP180;54794;48.348;7.878;2022-07-21T06:09:12;99566.00;;;24.90
68012;BMP180;54794;48.348;7.878;2022-07-21T06:11:39;99563.00;;;24.90
68012;BMP180;54794;48.348;7.878;2022-07-21T06:14:06;99564.00;;;25.00
68012;BMP180;54794;48.348;7.878;2022-07-21T06:16:33;99574.00;;;25.10
68012;BMP180;54794;48.348;7.878;2022-07-21T06:19:00;99568.00;;;25.10
68012;BMP180;54794;48.348;7.878;2022-07-21T06:21:29;99579.00;;;25.20
68012;BMP180;54794;48.348;7.878;2022-07-21T06:23:56;99570.00;;;25.20
68012;BMP180;54794;48.348;7.878;2022-07-21T06:26:25;99586.00;;;25.30
68012;BMP180;54794;48.348;7.878;2022-07-21T06:28:53;99585.00;;;25.40
68012;BMP180;54794;48.348;7.878;2022-07-21T06:31:20;99576.00;;;25.50
68012;BMP180;54794;48.348;7.878;2022-07-21T06:33:48;99580.00;;;25.60
68012;BMP180;54794;48.348;7.878;2022-07-21T06:36:15;99568.00;;;25.60
68012;BMP180;54794;48.348;7.878;2022-07-21T06:38:42;99583.00;;;25.70
68012;BMP180;54794;48.348;7.878;2022-07-21T06:41:12;99585.00;;;25.80
68012;BMP180;54794;48.348;7.878;2022-07-21T06:43:39;99590.00;;;25.90
68012;BMP180;54794;48.348;7.878;2022-07-21T06:46:06;99585.00;;;26.00
68012;BMP180;54794;48.348;7.878;2022-07-21T06:48:33;99592.00;;;26.10
68012;BMP180;54794;48.348;7.878;2022-07-21T06:51:00;99593.00;;;26.20
68012;BMP180;54794;48.348;7.878;2022-07-21T06:53:27;99596.00;;;26.30
68012;BMP180;54794;48.348;7.878;2022-07-21T06:55:54;99600.00;;;26.40
68012;BMP180;54794;48.348;7.878;2022-07-21T06:58:30;99604.00;;;26.60
68012;BMP180;54794;48.348;7.878;2022-07-21T07:01:05;99599.00;;;26.70
68012;BMP180;54794;48.348;7.878;2022-07-21T07:03:32;99600.00;;;26.80
68012;BMP180;54794;48.348;7.878;2022-07-21T07:06:02;99608.00;;;26.90
68012;BMP180;54794;48.348;7.878;2022-07-21T07:08:43;99599.00;;;26.90
68012;BMP180;54794;48.348;7.878;2022-07-21T07:11:25;99592.00;;;27.00
68012;BMP180;54794;48.348;7.878;2022-07-21T07:14:06;99611.00;;;27.10
68012;BMP180;54794;48.348;7.878;2022-07-21T07:16:48;99614.00;;;27.10
68012;BMP180;54794;48.348;7.878;2022-07-21T07:19:29;99617.00;;;27.10
68012;BMP180;54794;48.348;7.878;2022-07-21T07:22:11;99616.00;;;27.10
68012;BMP180;54794;48.348;7.878;2022-07-21T07:24:52;99612.00;;;27.10
68012;BMP180;54794;48.348;7.878;2022-07-21T07:27:33;99587.00;;;27.10
68012;BMP180;54794;48.348;7.878;2022-07-21T07:30:16;99603.00;;;27.10
68012;BMP180;54794;48.348;7.878;2022-07-21T07:32:56;99606.00;;;27.10
68012;BMP180;54794;48.348;7.878;2022-07-21T07:35:23;99605.00;;;27.10
68012;BMP180;54794;48.348;7.878;2022-07-21T07:37:50;99604.00;;;27.20
68012;BMP180;54794;48.348;7.878;2022-07-21T07:40:20;99598.00;;;27.20
68012;BMP180;54794;48.348;7.878;2022-07-21T07:42:48;99611.00;;;27.20
68012;BMP180;54794;48.348;7.878;2022-07-21T07:45:15;99608.00;;;27.20
68012;BMP180;54794;48.348;7.878;2022-07-21T07:47:43;99608.00;;;27.30
68012;BMP180;54794;48.348;7.878;2022-07-21T07:50:12;99606.00;;;27.30
68012;BMP180;54794;48.348;7.878;2022-07-21T07:52:42;99610.00;;;27.40
68012;BMP180;54794;48.348;7.878;2022-07-21T07:55:11;99606.00;;;27.40
68012;BMP180;54794;48.348;7.878;2022-07-21T07:57:41;99607.00;;;27.50
68012;BMP180;54794;48.348;7.878;2022-07-21T08:00:14;99613.00;;;27.50
68012;BMP180;54794;48.348;7.878;2022-07-21T08:03:02;99607.00;;;27.60
68012;BMP180;54794;48.348;7.878;2022-07-21T08:05:28;99607.00;;;27.60
68012;BMP180;54794;48.348;7.878;2022-07-21T08:07:55;99614.00;;;27.70
68012;BMP180;54794;48.348;7.878;2022-07-21T08:10:22;99599.00;;;27.70
68012;BMP180;54794;48.348;7.878;2022-07-21T08:13:11;99615.00;;;27.80
68012;BMP180;54794;48.348;7.878;2022-07-21T08:15:38;99609.00;;;27.90
68012;BMP180;54794;48.348;7.878;2022-07-21T08:18:06;99611.00;;;27.90
68012;BMP180;54794;48.348;7.878;2022-07-21T08:20:34;99611.00;;;28.00
68012;BMP180;54794;48.348;7.878;2022-07-21T08:23:01;99609.00;;;28.10
68012;BMP180;54794;48.348;7.878;2022-07-21T08:25:28;99602.00;;;28.20
68012;BMP180;54794;48.348;7.878;2022-07-21T08:27:55;99617.00;;;28.20
68012;BMP180;54794;48.348;7.878;2022-07-21T08:30:23;99629.00;;;28.30
68012;BMP180;54794;48.348;7.878;2022-07-21T08:32:58;99617.00;;;28.40
68012;BMP180;54794;48.348;7.878;2022-07-21T08:35:26;99622.00;;;28.50
68012;BMP180;54794;48.348;7.878;2022-07-21T08:38:03;99624.00;;;28.50
68012;BMP180;54794;48.348;7.878;2022-07-21T08:40:36;99626.00;;;28.70
68012;BMP180;54794;48.348;7.878;2022-07-21T08:43:05;99623.00;;;28.80
68012;BMP180;54794;48.348;7.878;2022-07-21T08:45:33;99622.00;;;28.90
68012;BMP180;54794;48.348;7.878;2022-07-21T08:48:00;99620.00;;;29.00
68012;BMP180;54794;48.348;7.878;2022-07-21T08:50:34;99620.00;;;29.10
68012;BMP180;54794;48.348;7.878;2022-07-21T08:53:02;99619.00;;;29.20
68012;BMP180;54794;48.348;7.878;2022-07-21T08:55:32;99619.00;;;29.30
68012;BMP180;54794;48.348;7.878;2022-07-21T08:58:00;99617.00;;;29.30
68012;BMP180;54794;48.348;7.878;2022-07-21T09:00:35;99610.00;;;29.40
68012;BMP180;54794;48.348;7.878;2022-07-21T09:03:23;99630.00;;;29.50
68012;BMP180;54794;48.348;7.878;2022-07-21T09:06:13;99621.00;;;29.70
68012;BMP180;54794;48.348;7.878;2022-07-21T09:08:51;99620.00;;;29.80
68012;BMP180;54794;48.348;7.878;2022-07-21T09:11:26;99626.00;;;29.90
68012;BMP180;54794;48.348;7.878;2022-07-21T09:14:10;99603.00;;;29.90
68012;BMP180;54794;48.348;7.878;2022-07-21T09:16:44;99615.00;;;30.00
68012;BMP180;54794;48.348;7.878;2022-07-21T09:19:30;99618.00;;;30.10
68012;BMP180;54794;48.348;7.878;2022-07-21T09:22:04;99601.00;;;30.20
68012;BMP180;54794;48.348;7.878;2022-07-21T09:24:36;99619.00;;;30.30
68012;BMP180;54794;48.348;7.878;2022-07-21T09:27:18;99613.00;;;30.50
68012;BMP180;54794;48.348;7.878;2022-07-21T09:29:59;99600.00;;;30.60
68012;BMP180;54794;48.348;7.878;2022-07-21T09:32:29;99613.00;;;30.70
68012;BMP180;54794;48.348;7.878;2022-07-21T09:35:11;99626.00;;;30.80
68012;BMP180;54794;48.348;7.878;2022-07-21T09:37:42;99608.00;;;30.90
68012;BMP180;54794;48.348;7.878;2022-07-21T09:40:13;99608.00;;;31.10
68012;BMP180;54794;48.348;7.878;2022-07-21T09:42:47;99593.00;;;31.20
68012;BMP180;54794;48.348;7.878;2022-07-21T09:45:16;99610.00;;;31.30
68012;BMP180;54794;48.348;7.878;2022-07-21T09:47:45;99609.00;;;31.40
68012;BMP180;54794;48.348;7.878;2022-07-21T09:50:26;99597.00;;;31.50
68012;BMP180;54794;48.348;7.878;2022-07-21T09:53:07;99592.00;;;31.70
68012;BMP180;54794;48.348;7.878;2022-07-21T09:55:49;99598.00;;;31.70
68012;BMP180;54794;48.348;7.878;2022-07-21T09:58:31;99599.00;;;31.70
68012;BMP180;54794;48.348;7.878;2022-07-21T10:01:12;99600.00;;;31.70
68012;BMP180;54794;48.348;7.878;2022-07-21T10:03:55;99614.00;;;31.80
68012;BMP180;54794;48.348;7.878;2022-07-21T10:06:38;99588.00;;;31.90
68012;BMP180;54794;48.348;7.878;2022-07-21T10:09:09;99603.00;;;31.90
68012;BMP180;54794;48.348;7.878;2022-07-21T10:11:40;99602.00;;;31.90
68012;BMP180;54794;48.348;7.878;2022-07-21T10:14:11;99598.00;;;31.90
68012;BMP180;54794;48.348;7.878;2022-07-21T10:16:39;99600.00;;;31.90
68012;BMP180;54794;48.348;7.878;2022-07-21T10:19:28;99593.00;;;31.80
68012;BMP180;54794;48.348;7.878;2022-07-21T10:22:20;99588.00;;;31.80
68012;BMP180;54794;48.348;7.878;2022-07-21T10:24:49;99602.00;;;31.80
68012;BMP180;54794;48.348;7.878;2022-07-21T10:27:17;99593.00;;;31.80
68012;BMP180;54794;48.348;7.878;2022-07-21T10:29:58;99590.00;;;31.70
68012;BMP180;54794;48.348;7.878;2022-07-21T10:32:36;99580.00;;;31.70
68012;BMP180;54794;48.348;7.878;2022-07-21T10:35:30;99593.00;;;31.70
68012;BMP180;54794;48.348;7.878;2022-07-21T10:38:01;99576.00;;;31.80
68012;BMP180;54794;48.348;7.878;2022-07-21T10:45:39;99588.00;;;32.10
68012;BMP180;54794;48.348;7.878;2022-07-21T10:49:02;99592.00;;;32.20
68012;BMP180;54794;48.348;7.878;2022-07-21T10:51:25;99592.00;;;32.40
68012;BMP180;54794;48.348;7.878;2022-07-21T10:54:18;99581.00;;;32.50
68012;BMP180;54794;48.348;7.878;2022-07-21T10:56:46;99596.00;;;32.60
68012;BMP180;54794;48.348;7.878;2022-07-21T10:59:12;99590.00;;;32.70
68012;BMP180;54794;48.348;7.878;2022-07-21T11:01:40;99583.00;;;32.80
68012;BMP180;54794;48.348;7.878;2022-07-21T11:04:12;99584.00;;;32.90
68012;BMP180;54794;48.348;7.878;2022-07-21T11:06:41;99577.00;;;33.00
68012;BMP180;54794;48.348;7.878;2022-07-21T11:09:15;99587.00;;;33.10
68012;BMP180;54794;48.348;7.878;2022-07-21T11:12:02;99581.00;;;33.30
68012;BMP180;54794;48.348;7.878;2022-07-21T11:14:41;99575.00;;;33.40
68012;BMP180;54794;48.348;7.878;2022-07-21T11:17:36;99579.00;;;33.60
68012;BMP180;54794;48.348;7.878;2022-07-21T11:20:13;99562.00;;;33.70
68012;BMP180;54794;48.348;7.878;2022-07-21T11:22:41;99569.00;;;33.80
68012;BMP180;54794;48.348;7.878;2022-07-21T11:25:12;99571.00;;;33.90
68012;BMP180;54794;48.348;7.878;2022-07-21T11:27:40;99573.00;;;34.00
68012;BMP180;54794;48.348;7.878;2022-07-21T11:30:09;99573.00;;;34.10
68012;BMP180;54794;48.348;7.878;2022-07-21T11:32:36;99566.00;;;34.10
68012;BMP180;54794;48.348;7.878;2022-07-21T11:35:06;99564.00;;;34.20
68012;BMP180;54794;48.348;7.878;2022-07-21T11:37:39;99562.00;;;34.30
68012;BMP180;54794;48.348;7.878;2022-07-21T11:40:13;99549.00;;;34.40
68012;BMP180;54794;48.348;7.878;2022-07-21T11:42:54;99548.00;;;34.30
68012;BMP180;54794;48.348;7.878;2022-07-21T11:45:35;99548.00;;;34.40
68012;BMP180;54794;48.348;7.878;2022-07-21T11:48:31;99545.00;;;34.40
68012;BMP180;54794;48.348;7.878;2022-07-21T11:51:12;99540.00;;;34.40
68012;BMP180;54794;48.348;7.878;2022-07-21T11:53:53;99549.00;;;34.40
68012;BMP180;54794;48.348;7.878;2022-07-21T11:56:39;99541.00;;;34.40
68012;BMP180;54794;48.348;7.878;2022-07-21T11:59:22;99536.00;;;34.40
68012;BMP180;54794;48.348;7.878;2022-07-21T12:02:18;99534.00;;;34.30
68012;BMP180;54794;48.348;7.878;2022-07-21T12:05:02;99531.00;;;34.50
68012;BMP180;54794;48.348;7.878;2022-07-21T12:07:49;99513.00;;;34.50
68012;BMP180;54794;48.348;7.878;2022-07-21T12:10:30;99531.00;;;34.70
68012;BMP180;54794;48.348;7.878;2022-07-21T12:13:11;99520.00;;;34.80
68012;BMP180;54794;48.348;7.878;2022-07-21T12:15:52;99524.00;;;34.80
68012;BMP180;54794;48.348;7.878;2022-07-21T12:18:33;99530.00;;;34.90
68012;BMP180;54794;48.348;7.878;2022-07-21T12:21:14;99523.00;;;34.90
68012;BMP180;54794;48.348;7.878;2022-07-21T12:23:41;99528.00;;;34.80
68012;BMP180;54794;48.348;7.878;2022-07-21T12:26:22;99530.00;;;34.90
68012;BMP180;54794;48.348;7.878;2022-07-21T12:29:03;99532.00;;;34.90
68012;BMP180;54794;48.348;7.878;2022-07-21T12:31:44;99515.00;;;34.90
68012;BMP180;54794;48.348;7.878;2022-07-21T12:34:25;99526.00;;;34.90
68012;BMP180;54794;48.348;7.878;2022-07-21T12:37:07;99523.00;;;34.80
68012;BMP180;54794;48.348;7.878;2022-07-21T12:40:03;99514.00;;;34.80
68012;BMP180;54794;48.348;7.878;2022-07-21T12:42:44;99519.00;;;34.70
68012;BMP180;54794;48.348;7.878;2022-07-21T12:45:25;99506.00;;;34.60
68012;BMP180;54794;48.348;7.878;2022-07-21T12:48:12;99517.00;;;34.60
68012;BMP180;54794;48.348;7.878;2022-07-21T12:51:12;99506.00;;;34.50
68012;BMP180;54794;48.348;7.878;2022-07-21T12:53:54;99514.00;;;34.40
68012;BMP180;54794;48.348;7.878;2022-07-21T12:56:36;99515.00;;;34.40
68012;BMP180;54794;48.348;7.878;2022-07-21T12:59:18;99514.00;;;34.30
68012;BMP180;54794;48.348;7.878;2022-07-21T13:01:45;99516.00;;;34.20
68012;BMP180;54794;48.348;7.878;2022-07-21T13:04:13;99514.00;;;34.20
68012;BMP180;54794;48.348;7.878;2022-07-21T13:06:39;99522.00;;;34.20
68012;BMP180;54794;48.348;7.878;2022-07-21T13:09:06;99506.00;;;34.30
68012;BMP180;54794;48.348;7.878;2022-07-21T13:11:34;99502.00;;;34.40
68012;BMP180;54794;48.348;7.878;2022-07-21T13:14:01;99513.00;;;34.50
68012;BMP180;54794;48.348;7.878;2022-07-21T13:16:30;99508.00;;;34.60
68012;BMP180;54794;48.348;7.878;2022-07-21T13:18:58;99508.00;;;34.80
68012;BMP180;54794;48.348;7.878;2022-07-21T13:21:25;99503.00;;;34.90
68012;BMP180;54794;48.348;7.878;2022-07-21T13:23:52;99505.00;;;34.90
68012;BMP180;54794;48.348;7.878;2022-07-21T13:26:18;99511.00;;;35.10
68012;BMP180;54794;48.348;7.878;2022-07-21T13:28:45;99505.00;;;35.20
68012;BMP180;54794;48.348;7.878;2022-07-21T13:31:14;99505.00;;;35.40
68012;BMP180;54794;48.348;7.878;2022-07-21T13:33:41;99502.00;;;35.50
68012;BMP180;54794;48.348;7.878;2022-07-21T13:36:09;99494.00;;;35.50
68012;BMP180;54794;48.348;7.878;2022-07-21T13:38:36;99495.00;;;35.70
68012;BMP180;54794;48.348;7.878;2022-07-21T13:41:04;99492.00;;;35.80
68012;BMP180;54794;48.348;7.878;2022-07-21T13:43:52;99493.00;;;35.90
68012;BMP180;54794;48.348;7.878;2022-07-21T13:46:19;99492.00;;;36.00
68012;BMP180;54794;48.348;7.878;2022-07-21T13:48:47;99484.00;;;36.00
68012;BMP180;54794;48.348;7.878;2022-07-21T13:51:17;99483.00;;;36.10
68012;BMP180;54794;48.348;7.878;2022-07-21T13:53:47;99488.00;;;36.10
68012;BMP180;54794;48.348;7.878;2022-07-21T13:56:14;99482.00;;;36.20
68012;BMP180;54794;48.348;7.878;2022-07-21T13:58:42;99491.00;;;36.30
68012;BMP180;54794;48.348;7.878;2022-07-21T14:01:11;99483.00;;;36.40
68012;BMP180;54794;48.348;7.878;2022-07-21T14:03:53;99478.00;;;36.50
68012;BMP180;54794;48.348;7.878;2022-07-21T14:06:34;99483.00;;;36.60
68012;BMP180;54794;48.348;7.878;2022-07-21T14:09:16;99479.00;;;36.60
68012;BMP180;54794;48.348;7.878;2022-07-21T14:11:44;99474.00;;;36.70
68012;BMP180;54794;48.348;7.878;2022-07-21T14:14:11;99474.00;;;36.70
68012;BMP180;54794;48.348;7.878;2022-07-21T14:16:44;99460.00;;;36.70
68012;BMP180;54794;48.348;7.878;2022-07-21T14:19:12;99469.00;;;36.70
68012;BMP180;54794;48.348;7.878;2022-07-21T14:21:39;99469.00;;;36.70
68012;BMP180;54794;48.348;7.878;2022-07-21T14:24:06;99468.00;;;36.60
68012;BMP180;54794;48.348;7.878;2022-07-21T14:26:51;99460.00;;;36.80
68012;BMP180;54794;48.348;7.878;2022-07-21T14:29:18;99468.00;;;36.80
68012;BMP180;54794;48.348;7.878;2022-07-21T14:31:45;99468.00;;;36.80
68012;BMP180;54794;48.348;7.878;2022-07-21T14:34:12;99466.00;;;37.00
68012;BMP180;54794;48.348;7.878;2022-07-21T14:36:39;99467.00;;;37.10
68012;BMP180;54794;48.348;7.878;2022-07-21T14:39:06;99464.00;;;37.10